»·PEaware :: N12529 KFUL-KCMA

N12529 :: KFUL-KCMA

FLIGHT INFORMATION

Flight Status: Arrived
Operator: Privately registered:
United States
More flights under this callsign
Pilot: Eduardo Elias G. (24838)
Aircraft: CESSNA 172 SKYHAWK
(C172)
More flights by this aircraft type
Origin: KFUL Fullerton Mun
United States
Destination: KCMA Camarillo
United States
More flights between these airports :: More routes between these airports
Route: SLI V23 POPPR SMO125 SMO VNY
File this flight plan on PilotEdge
Remarks:
Altitude:
(Current/Filed)
4,000ft
Speed:
(Current/Filed)
125kts
Departed: 12-Feb-20 09:43 PM
Arrived: 12-Feb-20 10:22 PM
Distance/Time
Traveled:
59nm/0:39
Distance/Time
To Go:
Arrived

Flight Plot

Page will automatically refresh every two minutes.


Map Options




Map Legend


Flown Route
Filed Route
Departure Airport
Arrival Airport
Navaid (VOR, NDB)
Fix

Horizontal Profiles

Position Reports

Time Latitude Longitude Heading Altitude Ground
Speed
12-Feb-20 21:23 33.873109 -117.983315 80 99ft 0kts
12-Feb-20 21:24 33.873109 -117.983311 80 99ft 0kts
12-Feb-20 21:25 33.873110 -117.983308 80 99ft 0kts
12-Feb-20 21:26 33.873110 -117.983304 80 99ft 0kts
12-Feb-20 21:27 33.873111 -117.983300 80 99ft 0kts
12-Feb-20 21:28 33.873111 -117.983296 80 99ft 0kts
12-Feb-20 21:29 33.873112 -117.983293 80 99ft 0kts
12-Feb-20 21:30 33.873112 -117.983289 80 99ft 0kts
12-Feb-20 21:31 33.873113 -117.983286 80 99ft 0kts
12-Feb-20 21:32 33.873113 -117.983283 80 99ft 0kts
12-Feb-20 21:33 33.873114 -117.983280 80 99ft 0kts
12-Feb-20 21:34 33.873114 -117.983276 80 99ft 0kts
12-Feb-20 21:35 33.873115 -117.983273 80 99ft 0kts
12-Feb-20 21:36 33.873133 -117.982773 98 99ft 9kts
12-Feb-20 21:37 33.872715 -117.981883 75 99ft 4kts
12-Feb-20 21:38 33.872687 -117.979845 77 99ft 14kts
12-Feb-20 21:39 33.873324 -117.975288 112 99ft 1kts
12-Feb-20 21:40 33.873322 -117.975281 113 99ft 0kts
12-Feb-20 21:41 33.873320 -117.975275 113 99ft 0kts
12-Feb-20 21:42 33.870931 -117.983632 251 207ft 78kts
12-Feb-20 21:43 33.862951 -118.005898 242 1161ft 70kts
12-Feb-20 21:44 33.854664 -118.027983 244 1939ft 81kts
12-Feb-20 21:45 33.844785 -118.055014 242 2681ft 80kts
12-Feb-20 21:46 33.834812 -118.079210 243 3445ft 79kts
12-Feb-20 21:47 33.825060 -118.104550 249 3969ft 98kts
12-Feb-20 21:48 33.821267 -118.142416 274 3748ft 124kts
12-Feb-20 21:49 33.823382 -118.180807 272 4006ft 116kts
12-Feb-20 21:50 33.825325 -118.218684 272 4006ft 111kts
12-Feb-20 21:51 33.827220 -118.255697 272 4008ft 110kts
12-Feb-20 21:52 33.829128 -118.292980 272 4016ft 115kts
12-Feb-20 21:53 33.850215 -118.320689 327 4015ft 122kts
12-Feb-20 21:54 33.880997 -118.339171 332 4009ft 123kts
12-Feb-20 21:55 33.911899 -118.357331 323 4008ft 123kts
12-Feb-20 21:56 33.938446 -118.383089 317 3999ft 122kts
12-Feb-20 21:57 33.964414 -118.409718 317 3999ft 122kts
12-Feb-20 21:58 33.990316 -118.436435 318 3999ft 122kts
12-Feb-20 21:59 34.017577 -118.461108 342 3989ft 125kts
12-Feb-20 22:00 34.052086 -118.465862 357 4001ft 126kts
12-Feb-20 22:01 34.087253 -118.465707 357 3999ft 126kts
12-Feb-20 22:02 34.122517 -118.467882 346 3999ft 127kts
12-Feb-20 22:03 34.157190 -118.476534 343 3999ft 127kts
12-Feb-20 22:04 34.191890 -118.485615 349 3991ft 128kts
12-Feb-20 22:05 34.227104 -118.493803 334 3962ft 128kts
12-Feb-20 22:06 34.236157 -118.532075 272 3976ft 123kts
12-Feb-20 22:07 34.238950 -118.573442 272 3970ft 124kts
12-Feb-20 22:08 34.241708 -118.615076 272 3968ft 123kts
12-Feb-20 22:09 34.244442 -118.656457 272 3969ft 123kts
12-Feb-20 22:10 34.247177 -118.697869 272 3969ft 123kts
12-Feb-20 22:11 34.249919 -118.739334 272 3969ft 123kts
12-Feb-20 22:12 34.249199 -118.780626 263 3970ft 123kts
12-Feb-20 22:13 34.244729 -118.822688 260 3724ft 133kts
12-Feb-20 22:14 34.239305 -118.866247 260 3360ft 123kts
12-Feb-20 22:15 34.234473 -118.907148 260 3057ft 127kts
12-Feb-20 22:16 34.231530 -118.948455 262 2476ft 119kts
12-Feb-20 22:17 34.226077 -118.987213 254 2015ft 112kts
12-Feb-20 22:18 34.220570 -119.023719 264 1484ft 89kts
12-Feb-20 22:19 34.217708 -119.049510 244 1045ft 67kts
12-Feb-20 22:20 34.213475 -119.072024 268 535ft 73kts
12-Feb-20 22:21 34.213734 -119.093353 265 78ft 28kts
12-Feb-20 22:22 34.213239 -119.097436 187 78ft 5kts
12-Feb-20 22:23 34.213158 -119.097441 179 78ft 0kts
12-Feb-20 22:24 34.211424 -119.096040 100 78ft 6kts
12-Feb-20 22:25 34.210929 -119.094919 177 78ft 0kts
12-Feb-20 22:26 34.210929 -119.094919 177 78ft 0kts

Navigation Log

Ident Type
Flight plan parsing failed, navigation log unavailable